createdAt,value
2022-12-27T00:01:43.508Z,4.17
2022-12-27T00:04:11.431Z,4.14
2022-12-27T00:06:39.560Z,4.16
2022-12-27T00:09:07.689Z,4.08
2022-12-27T00:11:35.397Z,4.08
2022-12-27T00:14:05.220Z,4.08
2022-12-27T00:16:33.955Z,4.15
2022-12-27T00:19:03.466Z,4.12
2022-12-27T00:21:31.417Z,4.11
2022-12-27T00:24:01.015Z,4.14
2022-12-27T00:26:31.205Z,4.16
2022-12-27T00:28:59.945Z,4.12
2022-12-27T00:31:29.285Z,4.10
2022-12-27T00:33:59.154Z,3.99
2022-12-27T00:36:30.929Z,4.07
2022-12-27T00:39:00.311Z,4.11
2022-12-27T00:41:29.051Z,4.08
2022-12-27T00:43:57.231Z,4.11
2022-12-27T00:46:25.052Z,4.18
2022-12-27T00:48:52.895Z,4.22
2022-12-27T00:51:23.267Z,4.30
2022-12-27T00:53:53.358Z,4.38
2022-12-27T00:56:25.109Z,4.47
2022-12-27T00:58:54.685Z,4.48
2022-12-27T01:01:24.750Z,4.50
2022-12-27T01:03:52.909Z,4.53
2022-12-27T01:06:23.593Z,4.45
2022-12-27T01:08:52.862Z,4.48
2022-12-27T01:11:20.981Z,4.48
2022-12-27T01:13:48.791Z,4.37
2022-12-27T01:16:18.614Z,4.31
2022-12-27T01:18:47.077Z,4.28
2022-12-27T01:21:16.568Z,4.21
2022-12-27T01:23:45.087Z,4.29
2022-12-27T01:26:16.605Z,4.16
2022-12-27T01:28:45.226Z,4.19
2022-12-27T01:31:14.888Z,4.19
2022-12-27T01:33:43.245Z,4.11
2022-12-27T01:36:17.148Z,4.10
2022-12-27T01:38:45.075Z,4.15
2022-12-27T01:41:35.243Z,4.20
2022-12-27T01:44:03.365Z,4.18
2022-12-27T01:46:32.003Z,4.19
2022-12-27T01:49:00.989Z,4.20
2022-12-27T01:51:30.226Z,4.15
2022-12-27T01:53:58.356Z,4.15
2022-12-27T01:56:31.371Z,4.21
2022-12-27T01:59:03.266Z,4.20
2022-12-27T02:01:35.948Z,4.10
2022-12-27T02:04:08.684Z,4.28
2022-12-27T02:06:39.341Z,4.39
2022-12-27T02:09:14.225Z,4.37
2022-12-27T02:11:52.200Z,4.36
2022-12-27T02:14:27.633Z,4.55
2022-12-27T02:16:57.825Z,4.47
2022-12-27T02:19:33.390Z,4.51
2022-12-27T02:22:21.277Z,4.51
2022-12-27T02:25:10.466Z,4.48
2022-12-27T02:27:53.999Z,4.32
2022-12-27T02:30:35.749Z,4.39
2022-12-27T02:33:19.062Z,4.31
2022-12-27T02:35:55.736Z,4.38
2022-12-27T02:38:31.570Z,4.32
2022-12-27T02:41:23.496Z,4.35
2022-12-27T02:44:14.630Z,4.34
2022-12-27T02:47:03.284Z,4.29
2022-12-27T02:49:51.884Z,4.29
2022-12-27T02:52:53.704Z,4.42
2022-12-27T02:55:38.875Z,4.37
2022-12-27T02:58:24.978Z,4.33
2022-12-27T03:01:29.470Z,4.38
2022-12-27T03:04:18.658Z,4.34
2022-12-27T03:07:27.985Z,4.32
2022-12-27T03:10:31.104Z,4.34
2022-12-27T03:13:33.532Z,4.38
2022-12-27T03:16:15.187Z,4.35
2022-12-27T03:19:04.498Z,4.29
2022-12-27T03:21:53.481Z,4.24
2022-12-27T03:24:43.355Z,4.29
2022-12-27T03:27:18.173Z,4.24
2022-12-27T03:30:10.730Z,4.20
2022-12-27T03:33:03.867Z,4.28
2022-12-27T03:35:35.275Z,4.38
2022-12-27T03:38:05.409Z,4.43
2022-12-27T03:41:06.996Z,4.42
2022-12-27T03:43:35.666Z,4.39
2022-12-27T03:46:38.435Z,4.43
2022-12-27T03:49:22.881Z,4.37
2022-12-27T03:51:56.714Z,4.42
2022-12-27T03:54:30.725Z,4.38
2022-12-27T03:57:02.910Z,4.35
2022-12-27T03:59:31.407Z,4.46
2022-12-27T04:01:59.753Z,4.41
2022-12-27T04:04:27.862Z,4.41
2022-12-27T04:06:55.690Z,4.41
2022-12-27T04:09:42.812Z,4.41
2022-12-27T04:12:28.288Z,4.46
2022-12-27T04:15:13.511Z,4.48
2022-12-27T04:17:58.981Z,4.40
2022-12-27T04:20:44.918Z,4.42
2022-12-27T04:23:30.662Z,4.30
2022-12-27T04:26:17.555Z,4.35
2022-12-27T04:29:03.318Z,4.49
2022-12-27T04:31:49.089Z,4.58
2022-12-27T04:34:34.481Z,4.53
2022-12-27T04:37:02.475Z,4.53
2022-12-27T04:39:30.555Z,4.62
2022-12-27T04:42:17.556Z,4.73
2022-12-27T04:45:03.038Z,4.75
2022-12-27T04:47:49.415Z,4.81
2022-12-27T04:50:42.887Z,4.73
2022-12-27T04:53:30.888Z,4.79
2022-12-27T04:55:58.992Z,4.85
2022-12-27T04:58:28.369Z,4.82
2022-12-27T05:01:16.181Z,4.86
2022-12-27T05:03:45.753Z,4.98
2022-12-27T05:06:13.661Z,4.93
2022-12-27T05:08:59.547Z,4.98
2022-12-27T05:11:45.485Z,4.91
2022-12-27T05:14:16.503Z,4.90
2022-12-27T05:16:45.419Z,4.97
2022-12-27T05:19:15.149Z,4.92
2022-12-27T05:22:06.057Z,4.93
2022-12-27T05:24:51.444Z,4.84
2022-12-27T05:27:19.593Z,4.87
2022-12-27T05:29:49.572Z,4.97
2022-12-27T05:32:17.992Z,4.86
2022-12-27T05:34:47.454Z,5.01
2022-12-27T05:37:16.144Z,5.03
2022-12-27T05:39:44.443Z,5.04
2022-12-27T05:42:12.387Z,5.04
2022-12-27T05:44:40.298Z,5.03
2022-12-27T05:47:09.611Z,5.15
2022-12-27T05:49:37.682Z,5.21
2022-12-27T05:52:05.979Z,5.17
2022-12-27T05:54:34.236Z,5.07
2022-12-27T05:57:02.419Z,5.10
2022-12-27T05:59:30.267Z,5.00
2022-12-27T06:01:58.345Z,4.95
2022-12-27T06:04:27.940Z,4.87
2022-12-27T06:06:56.058Z,4.81
2022-12-27T06:09:24.094Z,4.92
2022-12-27T06:11:52.777Z,4.99
2022-12-27T06:14:20.760Z,5.05
2022-12-27T06:16:48.758Z,5.23
2022-12-27T06:19:16.991Z,5.17
2022-12-27T06:21:46.563Z,5.06
2022-12-27T06:24:14.793Z,5.02
2022-12-27T06:26:43.439Z,5.06
2022-12-27T06:29:13.593Z,5.13
2022-12-27T06:31:41.460Z,5.10
2022-12-27T06:34:12.045Z,5.18
2022-12-27T06:36:40.158Z,5.17
2022-12-27T06:39:09.465Z,5.22
2022-12-27T06:41:37.421Z,5.21
2022-12-27T06:44:05.659Z,5.12
2022-12-27T06:46:33.632Z,5.13
2022-12-27T06:49:01.411Z,5.03
2022-12-27T06:51:30.733Z,5.14
2022-12-27T06:53:58.976Z,5.06
2022-12-27T06:56:28.766Z,4.86
2022-12-27T06:58:56.772Z,5.13
2022-12-27T07:01:26.926Z,5.08
2022-12-27T07:03:56.435Z,4.95
2022-12-27T07:06:26.155Z,5.14
2022-12-27T07:08:54.284Z,5.04
2022-12-27T07:11:23.094Z,5.10
2022-12-27T07:13:55.661Z,4.93
2022-12-27T07:16:25.910Z,4.88
2022-12-27T07:18:55.304Z,5.13
2022-12-27T07:21:24.922Z,5.17
2022-12-27T07:23:53.108Z,5.28
2022-12-27T07:26:23.468Z,5.18
2022-12-27T07:28:54.152Z,5.24
2022-12-27T07:31:26.348Z,5.23
2022-12-27T07:33:54.510Z,5.16
2022-12-27T07:36:25.217Z,5.27
2022-12-27T07:38:53.683Z,5.28
2022-12-27T07:41:21.665Z,5.16
2022-12-27T07:43:49.971Z,5.12
2022-12-27T07:46:23.999Z,5.08
2022-12-27T07:49:13.836Z,4.96
2022-12-27T07:51:45.746Z,5.06
2022-12-27T07:54:14.243Z,4.89
2022-12-27T07:56:43.224Z,4.88
2022-12-27T07:59:14.304Z,4.93
2022-12-27T08:02:08.263Z,5.00
2022-12-27T08:04:39.844Z,4.88
2022-12-27T08:07:10.429Z,4.99
2022-12-27T08:09:42.013Z,4.97
2022-12-27T08:12:11.192Z,4.89
2022-12-27T08:14:39.363Z,4.92
2022-12-27T08:17:16.167Z,4.99
2022-12-27T08:19:47.369Z,4.89
2022-12-27T08:22:17.016Z,4.97
2022-12-27T08:24:45.620Z,4.92
2022-12-27T08:27:13.878Z,5.09
2022-12-27T08:29:42.700Z,4.86
2022-12-27T08:32:10.653Z,4.88
2022-12-27T08:34:38.677Z,4.97
2022-12-27T08:37:09.105Z,4.95
2022-12-27T08:39:37.035Z,4.99
2022-12-27T08:42:05.243Z,5.02
2022-12-27T08:44:33.377Z,4.97
2022-12-27T08:47:01.874Z,4.99
2022-12-27T08:49:29.908Z,4.99
2022-12-27T08:51:58.217Z,5.03
2022-12-27T08:54:27.722Z,5.11
2022-12-27T08:56:55.905Z,5.08
2022-12-27T08:59:23.995Z,5.06
2022-12-27T09:01:52.301Z,5.17
2022-12-27T09:04:20.491Z,5.13
2022-12-27T09:06:48.613Z,5.12
2022-12-27T09:09:17.124Z,5.30
2022-12-27T09:11:48.051Z,5.60
2022-12-27T09:14:16.073Z,5.63
2022-12-27T09:16:44.221Z,5.68
2022-12-27T09:19:12.547Z,5.72
2022-12-27T09:21:42.887Z,5.76
2022-12-27T09:24:12.708Z,5.95
2022-12-27T09:26:41.611Z,5.90
2022-12-27T09:29:11.780Z,5.85
2022-12-27T09:31:39.801Z,6.05
2022-12-27T09:34:07.864Z,6.05
2022-12-27T09:36:38.770Z,6.22
2022-12-27T09:39:06.978Z,6.20
2022-12-27T09:44:42.233Z,6.35
2022-12-27T09:47:13.877Z,6.66
2022-12-27T09:49:45.492Z,6.94
2022-12-27T09:52:18.233Z,6.91
2022-12-27T09:54:59.492Z,6.93
2022-12-27T09:57:36.791Z,6.96
2022-12-27T10:00:15.761Z,6.89
2022-12-27T10:02:45.158Z,6.51
2022-12-27T10:05:21.904Z,6.42
2022-12-27T10:08:10.908Z,6.48
2022-12-27T10:10:43.616Z,6.61
2022-12-27T10:13:28.074Z,6.51
2022-12-27T10:16:10.766Z,6.67
2022-12-27T10:18:49.998Z,6.61
2022-12-27T10:21:21.719Z,6.57
2022-12-27T10:23:55.366Z,7.06
2022-12-27T10:26:25.093Z,6.87
2022-12-27T10:28:58.745Z,6.77
2022-12-27T10:31:29.501Z,6.61
2022-12-27T10:33:58.374Z,6.78
2022-12-27T10:36:28.060Z,6.76
2022-12-27T10:38:56.152Z,6.83
2022-12-27T10:41:50.244Z,6.61
2022-12-27T10:44:18.053Z,6.26
2022-12-27T10:46:52.137Z,6.06
2022-12-27T10:49:25.635Z,5.70
2022-12-27T10:51:56.874Z,5.66
2022-12-27T10:54:26.405Z,5.66
2022-12-27T10:56:55.235Z,5.77
2022-12-27T10:59:24.841Z,5.73
2022-12-27T11:02:17.640Z,5.60
2022-12-27T11:04:59.977Z,5.50
2022-12-27T11:07:32.344Z,5.83
2022-12-27T11:10:09.202Z,7.02
2022-12-27T11:12:37.781Z,7.65
2022-12-27T11:15:18.702Z,7.28
2022-12-27T11:17:51.133Z,7.10
2022-12-27T11:20:23.195Z,6.63
2022-12-27T11:22:54.825Z,6.67
2022-12-27T11:25:23.368Z,6.46
2022-12-27T11:27:55.591Z,6.50
2022-12-27T11:30:26.577Z,6.32
2022-12-27T11:32:56.702Z,6.57
2022-12-27T11:35:24.915Z,6.68
2022-12-27T11:37:53.321Z,6.61
2022-12-27T11:40:25.397Z,6.43
2022-12-27T11:43:02.463Z,6.36
2022-12-27T11:45:36.620Z,6.47
2022-12-27T11:48:12.029Z,6.83
2022-12-27T11:50:54.133Z,6.86
2022-12-27T11:54:05.979Z,7.12
2022-12-27T11:56:36.453Z,7.23
2022-12-27T11:59:32.606Z,7.72
2022-12-27T12:02:27.131Z,7.83
2022-12-27T12:05:37.539Z,7.67
2022-12-27T12:08:38.701Z,7.61
2022-12-27T12:11:16.092Z,7.68
2022-12-27T12:14:05.178Z,7.69
2022-12-27T12:16:52.246Z,7.59
2022-12-27T12:19:35.189Z,7.81
2022-12-27T12:22:30.259Z,7.86
2022-12-27T12:25:24.479Z,7.61
2022-12-27T12:28:38.791Z,7.23
2022-12-27T12:31:21.577Z,7.13
2022-12-27T12:34:03.055Z,7.22
2022-12-27T12:36:56.200Z,7.41
2022-12-27T12:39:36.261Z,7.20
2022-12-27T12:42:16.600Z,7.27
2022-12-27T12:45:01.902Z,7.40
2022-12-27T12:47:50.485Z,7.29
2022-12-27T12:50:37.674Z,7.20
2022-12-27T12:53:24.734Z,7.20
2022-12-27T12:56:07.438Z,6.92
2022-12-27T12:58:51.677Z,7.03
2022-12-27T13:01:33.646Z,7.16
2022-12-27T13:04:24.049Z,7.28
2022-12-27T13:07:24.070Z,7.39
2022-12-27T13:10:24.495Z,7.23
2022-12-27T13:13:00.828Z,7.14
2022-12-27T13:15:41.286Z,7.10
2022-12-27T13:18:28.426Z,7.05
2022-12-27T13:21:11.300Z,7.11
2022-12-27T13:23:51.463Z,7.01
2022-12-27T13:26:29.158Z,7.21
2022-12-27T13:29:14.911Z,7.08
2022-12-27T13:31:54.007Z,6.88
2022-12-27T13:34:35.822Z,7.01
2022-12-27T13:37:16.272Z,7.04
2022-12-27T13:40:07.530Z,7.16
2022-12-27T13:43:00.581Z,7.07
2022-12-27T13:45:49.958Z,6.96
2022-12-27T13:48:39.592Z,7.05
2022-12-27T13:51:23.195Z,6.84
2022-12-27T13:54:21.356Z,6.76
2022-12-27T13:57:06.253Z,6.60
2022-12-27T13:59:57.573Z,6.66
2022-12-27T14:02:58.901Z,6.44
2022-12-27T14:05:57.922Z,6.38
2022-12-27T14:08:43.926Z,6.48
2022-12-27T14:11:32.074Z,6.22
2022-12-27T14:14:01.842Z,6.32
2022-12-27T14:16:41.288Z,6.23
2022-12-27T14:19:27.807Z,6.28
2022-12-27T14:22:26.019Z,6.32
2022-12-27T14:25:35.352Z,6.20
2022-12-27T14:28:41.697Z,6.18
2022-12-27T14:31:43.361Z,6.18
2022-12-27T14:34:39.277Z,6.17
2022-12-27T14:37:29.063Z,6.12
2022-12-27T14:40:40.735Z,6.10
2022-12-27T14:43:40.522Z,6.18
2022-12-27T14:46:44.566Z,6.09
2022-12-27T14:49:40.260Z,6.05
2022-12-27T14:52:46.125Z,5.99
2022-12-27T14:55:36.094Z,5.83
2022-12-27T14:58:17.282Z,5.99
2022-12-27T15:01:04.662Z,5.91
2022-12-27T15:03:50.143Z,5.86
2022-12-27T15:06:31.467Z,5.81
2022-12-27T15:09:11.099Z,5.79
2022-12-27T15:11:57.696Z,5.71
2022-12-27T15:14:51.571Z,5.79
2022-12-27T15:17:32.523Z,5.80
2022-12-27T15:20:26.002Z,5.77
2022-12-27T15:23:05.895Z,5.74
2022-12-27T15:25:48.739Z,5.74
2022-12-27T15:28:27.191Z,5.76
2022-12-27T15:31:00.283Z,5.73
2022-12-27T15:33:39.755Z,5.64
2022-12-27T15:36:14.235Z,5.65
2022-12-27T15:38:53.447Z,5.51
2022-12-27T15:41:48.916Z,5.57
2022-12-27T15:44:36.015Z,5.40
2022-12-27T15:47:30.136Z,5.35
2022-12-27T15:50:13.280Z,5.26
2022-12-27T15:52:54.918Z,5.28
2022-12-27T15:55:42.292Z,5.30
2022-12-27T15:58:16.409Z,5.28
2022-12-27T16:00:47.118Z,5.22
2022-12-27T16:03:36.479Z,5.24
2022-12-27T16:06:07.678Z,5.22
2022-12-27T16:08:40.160Z,5.25
2022-12-27T16:11:12.879Z,5.19
2022-12-27T16:13:44.465Z,5.14
2022-12-27T16:16:55.845Z,5.15
2022-12-27T16:19:41.221Z,5.27
2022-12-27T16:22:27.368Z,5.30
2022-12-27T16:24:55.813Z,5.16
2022-12-27T16:27:31.952Z,5.17
2022-12-27T16:30:00.516Z,5.29
2022-12-27T16:32:32.911Z,5.25
2022-12-27T16:35:16.900Z,5.21
2022-12-27T16:37:52.915Z,5.26
2022-12-27T16:40:39.605Z,5.35
2022-12-27T16:43:37.245Z,5.33
2022-12-27T16:46:39.768Z,5.41
2022-12-27T16:49:30.973Z,5.39
2022-12-27T16:52:19.654Z,5.43
2022-12-27T16:55:03.611Z,5.36
2022-12-27T16:57:41.506Z,5.43
2022-12-27T17:00:40.072Z,5.46
2022-12-27T17:03:30.156Z,5.43
2022-12-27T17:09:33.676Z,5.44
2022-12-27T17:12:10.169Z,5.53
2022-12-27T17:14:40.618Z,5.44
2022-12-27T17:17:14.800Z,5.45
2022-12-27T17:19:48.610Z,5.43
2022-12-27T17:22:19.187Z,5.41
2022-12-27T17:24:49.285Z,5.39
2022-12-27T17:27:27.690Z,5.44
2022-12-27T17:30:07.960Z,5.43
2022-12-27T17:33:02.981Z,5.47
2022-12-27T17:35:35.740Z,5.49
2022-12-27T17:38:22.498Z,5.45
2022-12-27T17:41:00.092Z,5.49
2022-12-27T17:43:57.119Z,5.57
2022-12-27T17:46:36.582Z,5.54
2022-12-27T17:49:06.785Z,5.55
2022-12-27T17:51:36.934Z,5.51
2022-12-27T17:54:41.345Z,5.44
2022-12-27T17:57:29.701Z,5.46
2022-12-27T17:59:57.443Z,5.44
2022-12-27T18:02:30.481Z,5.39
2022-12-27T18:05:01.410Z,5.42
2022-12-27T18:07:32.631Z,5.44
2022-12-27T18:10:05.063Z,5.50
2022-12-27T18:12:39.287Z,5.47
2022-12-27T18:15:15.897Z,5.50
2022-12-27T18:17:47.772Z,5.51
2022-12-27T18:20:29.000Z,5.59
2022-12-27T18:23:14.409Z,5.77
2022-12-27T18:25:52.021Z,5.77
2022-12-27T18:28:25.870Z,5.86
2022-12-27T18:30:59.986Z,5.96
2022-12-27T18:33:33.375Z,6.10
2022-12-27T18:36:04.184Z,6.13
2022-12-27T18:38:38.807Z,6.19
2022-12-27T18:41:12.099Z,6.25
2022-12-27T18:43:44.662Z,6.22
2022-12-27T18:46:17.504Z,6.26
2022-12-27T18:48:45.584Z,6.32
2022-12-27T18:51:13.675Z,6.36
2022-12-27T18:53:43.832Z,6.42
2022-12-27T18:56:26.796Z,6.37
2022-12-27T18:59:06.492Z,6.38
2022-12-27T19:01:42.734Z,6.38
2022-12-27T19:04:25.396Z,6.45
2022-12-27T19:07:04.952Z,6.47
2022-12-27T19:09:37.705Z,6.48
2022-12-27T19:12:10.390Z,6.46
2022-12-27T19:14:44.562Z,6.48
2022-12-27T19:17:21.133Z,6.51
2022-12-27T19:19:52.286Z,6.49
2022-12-27T19:22:34.076Z,6.57
2022-12-27T19:25:04.597Z,6.67
2022-12-27T19:27:34.333Z,6.77
2022-12-27T19:30:02.409Z,6.78
2022-12-27T19:32:34.958Z,6.65
2022-12-27T19:35:05.487Z,6.72
2022-12-27T19:37:35.828Z,6.68
2022-12-27T19:40:03.995Z,6.63
2022-12-27T19:42:35.271Z,6.74
2022-12-27T19:45:03.471Z,6.67
2022-12-27T19:47:32.368Z,6.79
2022-12-27T19:50:00.683Z,6.94
2022-12-27T19:52:29.549Z,6.89
2022-12-27T19:55:03.458Z,7.08
2022-12-27T19:57:31.624Z,7.21
2022-12-27T20:00:04.177Z,7.15
2022-12-27T20:02:35.328Z,7.09
2022-12-27T20:05:03.647Z,6.90
2022-12-27T20:07:32.233Z,7.11
2022-12-27T20:10:00.543Z,7.14
2022-12-27T20:12:28.791Z,6.92
2022-12-27T20:14:57.049Z,7.05
2022-12-27T20:17:28.612Z,7.09
2022-12-27T20:19:56.681Z,6.95
2022-12-27T20:22:24.719Z,6.89
2022-12-27T20:24:52.730Z,7.02
2022-12-27T20:27:23.899Z,6.88
2022-12-27T20:29:52.687Z,6.72
2022-12-27T20:32:20.937Z,6.80
2022-12-27T20:34:50.346Z,6.73
2022-12-27T20:37:24.148Z,6.73
2022-12-27T20:39:52.852Z,6.81
2022-12-27T20:42:21.208Z,6.80
2022-12-27T20:44:49.287Z,6.86
2022-12-27T20:47:17.458Z,6.87
2022-12-27T20:49:45.416Z,6.89
2022-12-27T20:52:15.019Z,6.79
2022-12-27T20:54:43.740Z,6.75
2022-12-27T20:57:11.737Z,6.75
2022-12-27T20:59:40.208Z,6.66
2022-12-27T21:02:08.461Z,6.72
2022-12-27T21:04:36.737Z,6.62
2022-12-27T21:07:05.095Z,6.70
2022-12-27T21:09:35.134Z,6.64
2022-12-27T21:12:07.195Z,6.67
2022-12-27T21:14:39.166Z,6.63
2022-12-27T21:17:07.764Z,6.59
2022-12-27T21:19:35.887Z,6.55
2022-12-27T21:22:04.395Z,6.71
2022-12-27T21:24:33.275Z,6.58
2022-12-27T21:27:12.289Z,6.62
2022-12-27T21:29:40.267Z,6.62
2022-12-27T21:32:08.439Z,6.42
2022-12-27T21:34:44.910Z,6.51
2022-12-27T21:37:13.656Z,6.31
2022-12-27T21:39:41.762Z,6.32
2022-12-27T21:42:12.328Z,6.32
2022-12-27T21:44:40.153Z,6.16
2022-12-27T21:47:08.067Z,6.20
2022-12-27T21:49:40.283Z,6.17
2022-12-27T21:52:08.314Z,6.12
2022-12-27T21:54:36.128Z,6.17
2022-12-27T21:57:04.340Z,6.04
2022-12-27T21:59:33.827Z,6.09
2022-12-27T22:02:01.839Z,6.02
2022-12-27T22:04:29.826Z,6.14
2022-12-27T22:06:57.703Z,5.99
2022-12-27T22:09:25.623Z,6.03
2022-12-27T22:11:53.574Z,5.95
2022-12-27T22:14:25.377Z,5.92
2022-12-27T22:16:55.327Z,5.99
2022-12-27T22:19:23.356Z,5.98
2022-12-27T22:21:51.379Z,5.94
2022-12-27T22:24:19.846Z,5.95
2022-12-27T22:26:50.028Z,6.09
2022-12-27T22:29:18.048Z,6.02
2022-12-27T22:31:46.569Z,6.07
2022-12-27T22:34:16.194Z,6.11
2022-12-27T22:36:44.732Z,5.85
2022-12-27T22:39:12.723Z,5.92
2022-12-27T22:41:40.658Z,5.81
2022-12-27T22:44:11.529Z,5.69
2022-12-27T22:47:06.666Z,5.71
2022-12-27T22:49:29.130Z,5.79
2022-12-27T22:51:57.142Z,5.75
2022-12-27T22:55:03.232Z,5.66
2022-12-27T22:57:13.326Z,5.70
2022-12-27T22:59:41.432Z,5.71
2022-12-27T23:02:09.320Z,5.54
2022-12-27T23:04:38.912Z,5.59
2022-12-27T23:07:06.966Z,5.59
2022-12-27T23:09:40.879Z,5.61
2022-12-27T23:12:10.999Z,5.60
2022-12-27T23:14:39.178Z,5.57
2022-12-27T23:17:07.217Z,5.55
2022-12-27T23:19:35.193Z,5.71
2022-12-27T23:22:04.703Z,5.57
2022-12-27T23:24:32.541Z,5.63
2022-12-27T23:27:00.531Z,5.58
2022-12-27T23:29:28.528Z,5.46
2022-12-27T23:31:56.617Z,5.56
2022-12-27T23:34:28.669Z,5.52
2022-12-27T23:36:57.518Z,5.53
2022-12-27T23:39:27.178Z,5.45
2022-12-27T23:41:55.475Z,5.68
2022-12-27T23:44:33.013Z,5.54
2022-12-27T23:47:03.298Z,5.59
2022-12-27T23:49:31.204Z,5.48
2022-12-27T23:51:59.032Z,5.42
2022-12-27T23:54:28.451Z,5.56
2022-12-27T23:56:56.275Z,5.44
2022-12-27T23:59:24.602Z,5.49
